• Join FlightAware (Why Join?)
  • Login
  • US Flag 
09:35AM EST


 

Airport Tracker/Info


-or-


 

Live Flight TrackerFlight Track Log ✈ TCF6008 ✈ 21-Apr-2013 ✈ KMKE - KLGA

Flight Track Log - Related Links

Times and Time Zones

All times are in EDT time to prevent confusion due to time zone crossing. See the TCF6008 flight status page for this flight to view local times or setup timezone preferences in your user account.

Time Position Orientation Groundspeed Altitude Reporting Facility
EDT Latitude Longitude Course Direction KTS MPH feet Rate Location/Type
07:22PM 42.9333 -87.9000 124° Southeast 138 159 1,800  Level KMKE
07:25PM 42.8915 -87.2969 185° South  Level Estimated
07:25PM 42.8144 -87.9781 206° Southwest 242 278 6,800  Level Chicago Center
07:26PM 42.8091 -87.3978 222° Southwest  Level FlightAware Approximate
07:26PM 42.7458 -88.0169 203° Southwest 264 304 10,200  Level Chicago Center
07:27PM 42.7958 -87.2479 180° South  Level Estimated
07:27PM 42.6672 -88.0244 184° South 282 325 13,400  Level Chicago Center
07:28PM 42.7824 -87.0982 124° Southeast  Level Estimated
07:28PM 42.5886 -88.0331 185° South 283 326 16,200  Level Chicago Center
07:29PM 42.5011 -88.0436 185° South 317 365 17,600 1,440 Climbing Chicago Center
07:30PM 42.4117 -87.9972 159° South 370 426 19,200 1,920 Climbing Chicago Center
07:31PM 42.3214 -87.8847 137° Southeast 379 436 21,600 2,040 Climbing Chicago Center
07:32PM 42.2511 -87.7706 130° Southeast 399 459 23,500 1,620 Climbing Chicago Center
07:33PM 42.2236 -87.6189 104° East 416 479 25,000 1,440 Climbing Chicago Center
07:34PM 42.1950 -87.4647 104° East 422 486 26,500 1,320 Climbing Chicago Center
07:35PM 42.1658 -87.3061 104° East 433 498 27,800 1,080 Climbing Chicago Center
07:36PM 42.1358 -87.1456 104° East 441 507 28,800 1,080 Climbing Chicago Center
07:37PM 42.0972 -86.9464 105° East 457 526 30,100 1,200 Climbing Chicago Center
07:38PM 42.0656 -86.7789 104° East 463 533 31,400 1,260 Climbing Chicago Center
07:39PM 42.0361 -86.6264 105° East 453 521 32,800 720 Climbing Chicago Center
07:40PM 42.0044 -86.4639 105° East 450 518 33,000 60 Climbing Chicago Center
07:41PM 41.9714 -86.2947 105° East 466 536 33,000  Level Chicago Center
07:42PM 41.9444 -86.0886 100° East 471 542 33,000  Level Chicago Center
07:43PM 41.9281 -85.9142 97° East 473 544 33,000  Level Chicago Center
07:44PM 41.9117 -85.7392 97° East 472 543 33,000  Level Chicago Center
07:45PM 41.8942 -85.5622 98° East 474 545 33,000  Level Chicago Center
07:46PM 41.8772 -85.3844 97° East 475 547 33,000  Level Chicago Center
07:47PM 41.8586 -85.2075 98° East 472 543 33,000  Level Chicago Center
07:48PM 41.8414 -85.0303 97° East 474 545 33,000  Level Chicago Center
07:49PM 41.8231 -84.8553 98° East 473 544 33,000  Level Chicago Center
07:50PM 41.7994 -84.6436 98° East 475 547 33,000  Level Chicago Center
07:52PM 41.7822 -84.4692 97° East 472 543 33,000  Level Chicago Center
07:53PM 41.7728 -84.2919 94° East 467 537 33,000  Level Cleveland Center
07:54PM 41.7558 -84.1017 97° East 467 537 33,000  Level Cleveland Center
07:55PM 41.7444 -83.9258 95° East 467 537 33,000  Level Cleveland Center
07:56PM 41.7306 -83.7525 96° East 467 537 33,000  Level Cleveland Center
07:57PM 41.7208 -83.5767 94° East 467 537 33,000  Level Cleveland Center
07:58PM 41.7064 -83.4036 96° East 467 537 33,000  Level Cleveland Center
07:59PM 41.6961 -83.2250 94° East 467 537 33,000  Level Cleveland Center
08:00PM 41.6831 -83.0550 96° East 467 537 33,000  Level Cleveland Center
08:01PM 41.6700 -82.8792 96° East 467 537 33,000  Level Cleveland Center
08:02PM 41.6547 -82.7064 97° East 467 537 33,000  Level Cleveland Center
08:03PM 41.6453 -82.5339 94° East 467 537 33,000  Level Cleveland Center
08:04PM 41.6292 -82.3611 97° East 472 543 33,000  Level Cleveland Center
08:05PM 41.6153 -82.1858 96° East 472 543 33,000  Level Cleveland Center
08:06PM 41.6008 -82.0131 96° East 466 536 33,000  Level Cleveland Center
08:07PM 41.5881 -81.8547 96° East 466 536 33,000  Level Cleveland Center
08:08PM 41.5731 -81.6850 97° East 466 536 33,000  Level Cleveland Center
08:09PM 41.5603 -81.5100 96° East 466 536 33,000  Level Cleveland Center
08:10PM 41.5447 -81.3350 97° East 471 542 33,000  Level Cleveland Center
08:11PM 41.5250 -81.1461 98° East 471 542 33,000  Level Cleveland Center
08:12PM 41.5111 -80.9658 96° East 476 548 33,000  Level Cleveland Center
08:13PM 41.4928 -80.7911 98° East 476 548 33,000  Level Cleveland Center
08:14PM 41.4783 -80.6136 96° East 482 555 33,000  Level Cleveland Center
08:15PM 41.4617 -80.4364 97° East 482 555 33,000  Level Cleveland Center
08:16PM 41.4467 -80.2756 97° East 482 555 33,000  Level Cleveland Center
08:17PM 41.4275 -80.0986 98° East 482 555 33,000  Level Cleveland Center
08:18PM 41.4078 -79.9078 98° East 477 549 33,000  Level Cleveland Center
08:19PM 41.3897 -79.7306 98° East 477 549 33,000  Level Cleveland Center
08:20PM 41.3739 -79.5731 98° East 477 549 33,000  Level Cleveland Center
08:21PM 41.3556 -79.3964 98° East 483 556 33,000  Level Cleveland Center
08:22PM 41.3369 -79.2225 98° East 483 556 33,000  Level Cleveland Center
08:23PM 41.3181 -79.0486 98° East 478 550 33,000  Level Cleveland Center
08:24PM 41.3011 -78.8778 97° East 478 550 33,000  Level Cleveland Center
08:25PM 41.2817 -78.7014 98° East 478 550 33,000  Level Cleveland Center
08:26PM 41.2619 -78.5281 99° East 478 550 33,000  Level Cleveland Center
08:26PM 41.2406 -78.3706 100° East 473 544 33,000  Level New York Center
08:27PM 41.2203 -78.1972 99° East 513 590 33,000  Level New York Center
08:28PM 41.1978 -78.0236 100° East 491 565 33,000  Level New York Center
08:29PM 41.1772 -77.8450 99° East 486 559 33,000 -540 Level New York Center
08:30PM 41.1542 -77.6714 100° East 481 554 32,000 -1,380 Descending New York Center
08:31PM 41.1331 -77.4958 99° East 481 554 30,300 -1,740 Descending New York Center
08:32PM 41.1094 -77.3225 100° East 481 554 28,600 -1,740 Descending New York Center
08:33PM 41.0878 -77.1444 99° East 481 554 26,900 -1,680 Descending New York Center
08:34PM 41.0650 -76.9853 101° East 469 540 25,300 -1,560 Descending New York Center
08:35PM 41.0439 -76.8264 100° East 447 514 23,800 -1,560 Descending New York Center
08:36PM 41.0206 -76.6731 101° East 435 501 22,300 -1,500 Descending New York Center
08:37PM 40.9881 -76.5272 106° East 425 489 20,900 -1,440 Descending New York Center
08:38PM 40.9531 -76.3869 108° East 408 470 19,500 -1,380 Descending New York Center
08:39PM 40.9242 -76.2528 106° East 392 451 18,200 -1,380 Descending New York Center
08:40PM 40.8906 -76.1208 109° East 387 445 16,800 -1,380 Descending New York Center
08:41PM 40.8644 -76.0064 107° East 367 422 15,500 -1,320 Descending New York Center
08:42PM 40.8322 -75.8806 109° East 336 387 14,300 -1,140 Descending New York Center
08:43PM 40.8056 -75.7742 108° East 311 358 13,200 -660 Descending New York Center
08:44PM 40.7808 -75.6711 108° East 306 352 13,000 -120 Descending New York Center
08:45PM 40.7575 -75.5764 108° East 301 346 13,000  Level New York Center
08:46PM 40.7289 -75.4592 108° East 306 352 13,000  Level New York Center
08:47PM 40.7061 -75.3508 105° East 306 352 13,000  Level New York Center
08:48PM 40.6831 -75.2425 106° East 306 352 13,000 -300 Level New York Center
08:49PM 40.6617 -75.1483 107° East 306 352 12,500 -1,200 Descending New York Center
08:50PM 40.6025 -75.0597 131° Southeast 295 339 10,700 -1,320 Descending New York Center
08:51PM 40.5597 -74.9750 124° Southeast 289 333 10,000 -360 Descending New York Center
08:52PM 40.5167 -74.8667 118° Southeast 283 326 10,000  Level New York TRACON
08:53PM 40.5000 -74.7833 105° East 282 325 10,000  Level New York TRACON
08:54PM 40.4667 -74.6667 111° Southeast 278 320 10,000 -720 Level New York TRACON
08:55PM 40.4333 -74.5833 118° Southeast 272 313 8,600 -1,080 Descending New York TRACON
08:56PM 40.4333 -74.5000 90° East 266 306 8,000 -360 Descending New York TRACON
08:57PM 40.4667 -74.4000 66° East 265 305 8,000 -120 Level New York TRACON
08:58PM 40.4833 -74.3167 75° East 266 306 7,800 -480 Descending New York TRACON
08:59PM 40.5167 -74.2167 66° East 254 292 7,000 -480 Descending New York TRACON
09:00PM 40.5500 -74.1667 49° Northeast 216 249 6,900 -660 Descending New York TRACON
09:01PM 40.6000 -74.1333 27° Northeast 182 209 5,700 -1,200 Descending New York TRACON
09:02PM 40.6500 -74.1167 14° North 179 206 4,400 -900 Descending New York TRACON
09:03PM 40.6833 -74.0833 37° Northeast 179 206 4,000 -240 Descending New York TRACON
09:04PM 40.7333 -74.0500 27° Northeast 181 208 4,000  Level New York TRACON
09:05PM 40.7833 -74.0167 27° Northeast 177 204 4,000  Level New York TRACON
09:06PM 40.8167 -74.0000 21° North 181 208 4,000  Level New York TRACON
09:07PM 40.8667 -73.9667 27° Northeast 180 207 4,000 -180 Level New York TRACON
09:08PM 40.9000 -73.9167 49° Northeast 179 206 3,700 -780 Descending New York TRACON
09:09PM 40.9167 -73.8500 72° East 180 207 2,500 -900 Descending New York TRACON
09:10PM 40.9000 -73.8167 123° Southeast 186 214 2,100 -540 Descending New York TRACON
09:11PM 40.8500 -73.8167 180° South 175 201 1,500 -600 Descending New York TRACON